sensor_id;sensor_type;location;lat;lon;timestamp;P1;durP1;ratioP1;P2;durP2;ratioP2
59300;SDS011;45073;52.740;6.784;2022-07-22T00:01:39;11.45;;;4.22;;
59300;SDS011;45073;52.740;6.784;2022-07-22T00:04:05;12.13;;;3.83;;
59300;SDS011;45073;52.740;6.784;2022-07-22T00:06:30;10.80;;;3.15;;
59300;SDS011;45073;52.740;6.784;2022-07-22T00:08:56;16.15;;;4.50;;
59300;SDS011;45073;52.740;6.784;2022-07-22T00:11:22;10.90;;;4.07;;
59300;SDS011;45073;52.740;6.784;2022-07-22T00:13:48;11.07;;;3.85;;
59300;SDS011;45073;52.740;6.784;2022-07-22T00:16:14;10.70;;;4.10;;
59300;SDS011;45073;52.740;6.784;2022-07-22T00:18:40;13.07;;;4.00;;
59300;SDS011;45073;52.740;6.784;2022-07-22T00:21:06;11.75;;;4.15;;
59300;SDS011;45073;52.740;6.784;2022-07-22T00:23:31;13.77;;;3.80;;
59300;SDS011;45073;52.740;6.784;2022-07-22T00:25:57;11.10;;;3.53;;
59300;SDS011;45073;52.740;6.784;2022-07-22T00:28:22;11.95;;;4.13;;
59300;SDS011;45073;52.740;6.784;2022-07-22T00:30:48;14.20;;;3.67;;
59300;SDS011;45073;52.740;6.784;2022-07-22T00:33:14;12.80;;;3.70;;
59300;SDS011;45073;52.740;6.784;2022-07-22T00:35:40;13.10;;;3.92;;
59300;SDS011;45073;52.740;6.784;2022-07-22T00:38:05;13.48;;;4.13;;
59300;SDS011;45073;52.740;6.784;2022-07-22T00:40:31;14.95;;;4.07;;
59300;SDS011;45073;52.740;6.784;2022-07-22T00:42:56;13.52;;;3.75;;
59300;SDS011;45073;52.740;6.784;2022-07-22T00:45:22;13.02;;;3.67;;
59300;SDS011;45073;52.740;6.784;2022-07-22T00:47:47;10.43;;;3.60;;
59300;SDS011;45073;52.740;6.784;2022-07-22T00:50:13;16.40;;;4.78;;
59300;SDS011;45073;52.740;6.784;2022-07-22T00:52:41;13.02;;;3.65;;
59300;SDS011;45073;52.740;6.784;2022-07-22T00:55:09;14.43;;;4.55;;
59300;SDS011;45073;52.740;6.784;2022-07-22T00:57:35;15.32;;;5.20;;
59300;SDS011;45073;52.740;6.784;2022-07-22T01:00:01;14.48;;;4.38;;
59300;SDS011;45073;52.740;6.784;2022-07-22T01:02:29;12.55;;;4.38;;
59300;SDS011;45073;52.740;6.784;2022-07-22T01:04:54;15.40;;;4.28;;
59300;SDS011;45073;52.740;6.784;2022-07-22T01:07:20;14.32;;;4.47;;
59300;SDS011;45073;52.740;6.784;2022-07-22T01:09:45;15.18;;;4.63;;
59300;SDS011;45073;52.740;6.784;2022-07-22T01:12:11;14.18;;;4.07;;
59300;SDS011;45073;52.740;6.784;2022-07-22T01:14:37;13.27;;;4.45;;
59300;SDS011;45073;52.740;6.784;2022-07-22T01:17:03;12.00;;;3.70;;
59300;SDS011;45073;52.740;6.784;2022-07-22T01:19:30;13.48;;;4.20;;
59300;SDS011;45073;52.740;6.784;2022-07-22T01:21:55;11.27;;;4.32;;
59300;SDS011;45073;52.740;6.784;2022-07-22T01:24:21;15.07;;;4.47;;
59300;SDS011;45073;52.740;6.784;2022-07-22T01:26:47;13.52;;;4.50;;
59300;SDS011;45073;52.740;6.784;2022-07-22T01:29:12;14.98;;;4.38;;
59300;SDS011;45073;52.740;6.784;2022-07-22T01:31:38;14.52;;;4.30;;
59300;SDS011;45073;52.740;6.784;2022-07-22T01:34:04;13.35;;;4.13;;
59300;SDS011;45073;52.740;6.784;2022-07-22T01:36:29;13.10;;;4.15;;
59300;SDS011;45073;52.740;6.784;2022-07-22T01:38:55;10.63;;;3.88;;
59300;SDS011;45073;52.740;6.784;2022-07-22T01:41:21;14.32;;;3.90;;
59300;SDS011;45073;52.740;6.784;2022-07-22T01:43:46;14.93;;;4.43;;
59300;SDS011;45073;52.740;6.784;2022-07-22T01:46:12;13.57;;;4.10;;
59300;SDS011;45073;52.740;6.784;2022-07-22T01:48:38;15.93;;;4.63;;
59300;SDS011;45073;52.740;6.784;2022-07-22T01:51:04;12.55;;;4.20;;
59300;SDS011;45073;52.740;6.784;2022-07-22T01:53:30;15.65;;;4.85;;
59300;SDS011;45073;52.740;6.784;2022-07-22T01:55:56;12.52;;;4.50;;
59300;SDS011;45073;52.740;6.784;2022-07-22T01:58:21;13.95;;;4.03;;
59300;SDS011;45073;52.740;6.784;2022-07-22T02:00:47;16.55;;;4.88;;
59300;SDS011;45073;52.740;6.784;2022-07-22T02:03:14;13.43;;;4.25;;
59300;SDS011;45073;52.740;6.784;2022-07-22T02:05:39;11.77;;;4.10;;
59300;SDS011;45073;52.740;6.784;2022-07-22T02:08:06;11.40;;;3.47;;
59300;SDS011;45073;52.740;6.784;2022-07-22T02:10:34;12.00;;;4.03;;
59300;SDS011;45073;52.740;6.784;2022-07-22T02:13:01;12.13;;;3.85;;
59300;SDS011;45073;52.740;6.784;2022-07-22T02:15:27;15.48;;;4.03;;
59300;SDS011;45073;52.740;6.784;2022-07-22T02:17:53;15.32;;;4.05;;
59300;SDS011;45073;52.740;6.784;2022-07-22T02:20:19;13.52;;;3.88;;
59300;SDS011;45073;52.740;6.784;2022-07-22T02:22:45;12.00;;;3.85;;
59300;SDS011;45073;52.740;6.784;2022-07-22T02:25:11;14.98;;;4.55;;
59300;SDS011;45073;52.740;6.784;2022-07-22T02:27:37;12.57;;;3.97;;
59300;SDS011;45073;52.740;6.784;2022-07-22T02:30:03;13.38;;;3.67;;
59300;SDS011;45073;52.740;6.784;2022-07-22T02:32:30;14.98;;;4.45;;
59300;SDS011;45073;52.740;6.784;2022-07-22T02:34:56;14.02;;;3.80;;
59300;SDS011;45073;52.740;6.784;2022-07-22T02:37:21;12.25;;;3.92;;
59300;SDS011;45073;52.740;6.784;2022-07-22T02:39:47;13.27;;;4.22;;
59300;SDS011;45073;52.740;6.784;2022-07-22T02:42:12;11.85;;;3.58;;
59300;SDS011;45073;52.740;6.784;2022-07-22T02:44:38;14.30;;;4.30;;
59300;SDS011;45073;52.740;6.784;2022-07-22T02:47:03;14.57;;;3.90;;
59300;SDS011;45073;52.740;6.784;2022-07-22T02:49:29;12.50;;;3.88;;
59300;SDS011;45073;52.740;6.784;2022-07-22T02:51:55;10.95;;;3.70;;
59300;SDS011;45073;52.740;6.784;2022-07-22T02:54:20;13.45;;;4.18;;
59300;SDS011;45073;52.740;6.784;2022-07-22T02:56:46;12.38;;;3.70;;
59300;SDS011;45073;52.740;6.784;2022-07-22T02:59:11;12.20;;;3.85;;
59300;SDS011;45073;52.740;6.784;2022-07-22T03:01:37;14.60;;;3.65;;
59300;SDS011;45073;52.740;6.784;2022-07-22T03:04:03;10.05;;;2.65;;
59300;SDS011;45073;52.740;6.784;2022-07-22T03:06:28;12.13;;;3.60;;
59300;SDS011;45073;52.740;6.784;2022-07-22T03:08:54;11.52;;;3.08;;
59300;SDS011;45073;52.740;6.784;2022-07-22T03:11:20;14.05;;;3.45;;
59300;SDS011;45073;52.740;6.784;2022-07-22T03:13:45;13.07;;;3.22;;
59300;SDS011;45073;52.740;6.784;2022-07-22T03:16:11;11.35;;;3.80;;
59300;SDS011;45073;52.740;6.784;2022-07-22T03:18:36;11.70;;;3.40;;
59300;SDS011;45073;52.740;6.784;2022-07-22T03:21:02;14.80;;;3.53;;
59300;SDS011;45073;52.740;6.784;2022-07-22T03:23:28;9.63;;;2.88;;
59300;SDS011;45073;52.740;6.784;2022-07-22T03:25:54;11.65;;;3.30;;
59300;SDS011;45073;52.740;6.784;2022-07-22T03:28:21;12.75;;;3.38;;
59300;SDS011;45073;52.740;6.784;2022-07-22T03:30:47;10.82;;;3.05;;
59300;SDS011;45073;52.740;6.784;2022-07-22T03:33:12;10.07;;;3.10;;
59300;SDS011;45073;52.740;6.784;2022-07-22T03:35:38;10.88;;;2.90;;
59300;SDS011;45073;52.740;6.784;2022-07-22T03:38:04;10.60;;;3.00;;
59300;SDS011;45073;52.740;6.784;2022-07-22T03:40:29;9.38;;;3.10;;
59300;SDS011;45073;52.740;6.784;2022-07-22T03:42:55;6.43;;;1.98;;
59300;SDS011;45073;52.740;6.784;2022-07-22T03:45:20;11.68;;;3.10;;
59300;SDS011;45073;52.740;6.784;2022-07-22T03:47:46;11.48;;;2.97;;
59300;SDS011;45073;52.740;6.784;2022-07-22T03:50:12;10.85;;;3.22;;
59300;SDS011;45073;52.740;6.784;2022-07-22T03:52:37;10.25;;;2.92;;
59300;SDS011;45073;52.740;6.784;2022-07-22T03:55:03;9.32;;;2.60;;
59300;SDS011;45073;52.740;6.784;2022-07-22T03:57:30;11.68;;;2.70;;
59300;SDS011;45073;52.740;6.784;2022-07-22T03:59:55;10.15;;;2.75;;
59300;SDS011;45073;52.740;6.784;2022-07-22T04:02:21;9.65;;;2.50;;
59300;SDS011;45073;52.740;6.784;2022-07-22T04:04:47;9.57;;;2.88;;
59300;SDS011;45073;52.740;6.784;2022-07-22T04:07:12;11.15;;;2.58;;
59300;SDS011;45073;52.740;6.784;2022-07-22T04:09:38;9.25;;;2.25;;
59300;SDS011;45073;52.740;6.784;2022-07-22T04:12:04;6.10;;;2.03;;
59300;SDS011;45073;52.740;6.784;2022-07-22T04:14:30;9.00;;;2.85;;
59300;SDS011;45073;52.740;6.784;2022-07-22T04:16:56;11.07;;;2.58;;
59300;SDS011;45073;52.740;6.784;2022-07-22T04:19:22;10.68;;;2.75;;
59300;SDS011;45073;52.740;6.784;2022-07-22T04:21:47;12.50;;;3.00;;
59300;SDS011;45073;52.740;6.784;2022-07-22T04:24:13;12.52;;;3.25;;
59300;SDS011;45073;52.740;6.784;2022-07-22T04:26:38;11.38;;;3.08;;
59300;SDS011;45073;52.740;6.784;2022-07-22T04:29:04;12.52;;;3.42;;
59300;SDS011;45073;52.740;6.784;2022-07-22T04:31:30;11.32;;;3.47;;
59300;SDS011;45073;52.740;6.784;2022-07-22T04:33:56;8.93;;;3.08;;
59300;SDS011;45073;52.740;6.784;2022-07-22T04:36:22;11.70;;;3.10;;
59300;SDS011;45073;52.740;6.784;2022-07-22T04:38:48;9.32;;;3.13;;
59300;SDS011;45073;52.740;6.784;2022-07-22T04:41:14;12.60;;;3.60;;
59300;SDS011;45073;52.740;6.784;2022-07-22T04:43:40;17.00;;;3.92;;
59300;SDS011;45073;52.740;6.784;2022-07-22T04:46:05;9.73;;;2.95;;
59300;SDS011;45073;52.740;6.784;2022-07-22T04:48:31;13.05;;;3.63;;
59300;SDS011;45073;52.740;6.784;2022-07-22T04:51:00;11.18;;;3.00;;
59300;SDS011;45073;52.740;6.784;2022-07-22T04:53:27;10.32;;;3.25;;
59300;SDS011;45073;52.740;6.784;2022-07-22T04:55:53;11.95;;;3.92;;
59300;SDS011;45073;52.740;6.784;2022-07-22T04:58:19;12.35;;;3.22;;
59300;SDS011;45073;52.740;6.784;2022-07-22T05:00:45;11.13;;;3.03;;
59300;SDS011;45073;52.740;6.784;2022-07-22T05:03:12;10.65;;;2.95;;
59300;SDS011;45073;52.740;6.784;2022-07-22T05:05:38;11.98;;;3.10;;
59300;SDS011;45073;52.740;6.784;2022-07-22T05:08:05;8.75;;;2.78;;
59300;SDS011;45073;52.740;6.784;2022-07-22T05:10:30;10.82;;;3.35;;
59300;SDS011;45073;52.740;6.784;2022-07-22T05:12:57;11.02;;;3.33;;
59300;SDS011;45073;52.740;6.784;2022-07-22T05:15:23;8.98;;;2.97;;
59300;SDS011;45073;52.740;6.784;2022-07-22T05:17:49;11.73;;;3.25;;
59300;SDS011;45073;52.740;6.784;2022-07-22T05:20:15;8.68;;;2.80;;
59300;SDS011;45073;52.740;6.784;2022-07-22T05:22:41;11.32;;;2.92;;
59300;SDS011;45073;52.740;6.784;2022-07-22T05:25:07;12.68;;;3.35;;
59300;SDS011;45073;52.740;6.784;2022-07-22T05:27:33;10.25;;;3.30;;
59300;SDS011;45073;52.740;6.784;2022-07-22T05:29:59;12.02;;;3.20;;
59300;SDS011;45073;52.740;6.784;2022-07-22T05:32:24;11.88;;;3.30;;
59300;SDS011;45073;52.740;6.784;2022-07-22T05:34:50;10.43;;;2.85;;
59300;SDS011;45073;52.740;6.784;2022-07-22T05:37:15;7.95;;;3.03;;
59300;SDS011;45073;52.740;6.784;2022-07-22T05:39:41;9.02;;;3.17;;
59300;SDS011;45073;52.740;6.784;2022-07-22T05:42:08;10.88;;;2.90;;
59300;SDS011;45073;52.740;6.784;2022-07-22T05:44:33;11.02;;;3.30;;
59300;SDS011;45073;52.740;6.784;2022-07-22T05:46:59;10.50;;;3.00;;
59300;SDS011;45073;52.740;6.784;2022-07-22T05:49:24;11.55;;;2.33;;
59300;SDS011;45073;52.740;6.784;2022-07-22T05:51:51;8.93;;;2.70;;
59300;SDS011;45073;52.740;6.784;2022-07-22T05:54:18;9.52;;;3.47;;
59300;SDS011;45073;52.740;6.784;2022-07-22T05:56:44;9.10;;;2.80;;
59300;SDS011;45073;52.740;6.784;2022-07-22T05:59:09;11.00;;;3.00;;
59300;SDS011;45073;52.740;6.784;2022-07-22T06:01:35;11.93;;;2.67;;
59300;SDS011;45073;52.740;6.784;2022-07-22T06:04:00;11.27;;;2.90;;
59300;SDS011;45073;52.740;6.784;2022-07-22T06:06:26;6.97;;;2.40;;
59300;SDS011;45073;52.740;6.784;2022-07-22T06:08:51;10.43;;;2.80;;
59300;SDS011;45073;52.740;6.784;2022-07-22T06:11:17;12.82;;;2.90;;
59300;SDS011;45073;52.740;6.784;2022-07-22T06:13:43;9.52;;;2.97;;
59300;SDS011;45073;52.740;6.784;2022-07-22T06:16:08;10.52;;;2.80;;
59300;SDS011;45073;52.740;6.784;2022-07-22T06:18:34;7.78;;;1.90;;
59300;SDS011;45073;52.740;6.784;2022-07-22T06:21:00;8.57;;;2.60;;
59300;SDS011;45073;52.740;6.784;2022-07-22T06:23:25;10.90;;;2.65;;
59300;SDS011;45073;52.740;6.784;2022-07-22T06:25:51;8.73;;;2.38;;
59300;SDS011;45073;52.740;6.784;2022-07-22T06:28:17;9.18;;;2.70;;
59300;SDS011;45073;52.740;6.784;2022-07-22T06:30:42;9.35;;;2.70;;
59300;SDS011;45073;52.740;6.784;2022-07-22T06:33:08;9.07;;;2.33;;
59300;SDS011;45073;52.740;6.784;2022-07-22T06:35:34;10.93;;;2.65;;
59300;SDS011;45073;52.740;6.784;2022-07-22T06:37:59;7.85;;;2.40;;
59300;SDS011;45073;52.740;6.784;2022-07-22T06:40:25;6.53;;;2.10;;
59300;SDS011;45073;52.740;6.784;2022-07-22T06:42:51;9.00;;;2.55;;
59300;SDS011;45073;52.740;6.784;2022-07-22T06:45:16;8.70;;;2.42;;
59300;SDS011;45073;52.740;6.784;2022-07-22T06:47:42;8.30;;;2.42;;
59300;SDS011;45073;52.740;6.784;2022-07-22T06:50:08;11.65;;;2.72;;
59300;SDS011;45073;52.740;6.784;2022-07-22T06:52:37;10.07;;;2.38;;
59300;SDS011;45073;52.740;6.784;2022-07-22T06:55:04;12.23;;;2.80;;
59300;SDS011;45073;52.740;6.784;2022-07-22T06:57:30;8.88;;;2.60;;
59300;SDS011;45073;52.740;6.784;2022-07-22T06:59:55;9.98;;;2.63;;
59300;SDS011;45073;52.740;6.784;2022-07-22T07:02:21;18.40;;;2.90;;
59300;SDS011;45073;52.740;6.784;2022-07-22T07:04:47;9.35;;;2.88;;
59300;SDS011;45073;52.740;6.784;2022-07-22T07:07:12;10.73;;;2.63;;
59300;SDS011;45073;52.740;6.784;2022-07-22T07:09:38;12.60;;;4.03;;
59300;SDS011;45073;52.740;6.784;2022-07-22T07:12:04;11.02;;;2.75;;
59300;SDS011;45073;52.740;6.784;2022-07-22T07:14:29;9.65;;;2.50;;
59300;SDS011;45073;52.740;6.784;2022-07-22T07:16:55;8.93;;;2.17;;
59300;SDS011;45073;52.740;6.784;2022-07-22T07:19:20;8.35;;;2.10;;
59300;SDS011;45073;52.740;6.784;2022-07-22T07:21:46;9.30;;;2.45;;
59300;SDS011;45073;52.740;6.784;2022-07-22T07:24:12;11.35;;;2.78;;
59300;SDS011;45073;52.740;6.784;2022-07-22T07:26:37;10.52;;;2.70;;
59300;SDS011;45073;52.740;6.784;2022-07-22T07:29:03;9.05;;;2.40;;
59300;SDS011;45073;52.740;6.784;2022-07-22T07:31:29;8.55;;;2.67;;
59300;SDS011;45073;52.740;6.784;2022-07-22T07:33:55;11.48;;;2.15;;
59300;SDS011;45073;52.740;6.784;2022-07-22T07:36:21;8.23;;;2.30;;
59300;SDS011;45073;52.740;6.784;2022-07-22T07:38:46;8.38;;;2.50;;
59300;SDS011;45073;52.740;6.784;2022-07-22T07:41:12;9.82;;;2.50;;
59300;SDS011;45073;52.740;6.784;2022-07-22T07:43:38;9.20;;;2.22;;
59300;SDS011;45073;52.740;6.784;2022-07-22T07:46:03;9.10;;;2.00;;
59300;SDS011;45073;52.740;6.784;2022-07-22T07:48:29;9.00;;;2.35;;
59300;SDS011;45073;52.740;6.784;2022-07-22T07:50:54;9.85;;;2.10;;
59300;SDS011;45073;52.740;6.784;2022-07-22T07:53:20;9.88;;;2.17;;
59300;SDS011;45073;52.740;6.784;2022-07-22T07:55:46;7.57;;;2.15;;
59300;SDS011;45073;52.740;6.784;2022-07-22T07:58:12;8.32;;;2.00;;
59300;SDS011;45073;52.740;6.784;2022-07-22T08:00:37;8.00;;;1.95;;
59300;SDS011;45073;52.740;6.784;2022-07-22T08:03:04;7.03;;;2.17;;
59300;SDS011;45073;52.740;6.784;2022-07-22T08:05:30;7.07;;;2.30;;
59300;SDS011;45073;52.740;6.784;2022-07-22T08:07:56;9.63;;;2.30;;
59300;SDS011;45073;52.740;6.784;2022-07-22T08:10:22;9.43;;;2.40;;
59300;SDS011;45073;52.740;6.784;2022-07-22T08:12:48;12.02;;;2.45;;
59300;SDS011;45073;52.740;6.784;2022-07-22T08:15:14;11.25;;;2.30;;
59300;SDS011;45073;52.740;6.784;2022-07-22T08:17:39;7.38;;;2.00;;
59300;SDS011;45073;52.740;6.784;2022-07-22T08:20:05;9.02;;;2.15;;
59300;SDS011;45073;52.740;6.784;2022-07-22T08:22:31;8.32;;;1.77;;
59300;SDS011;45073;52.740;6.784;2022-07-22T08:24:57;8.90;;;1.80;;
59300;SDS011;45073;52.740;6.784;2022-07-22T08:27:22;9.95;;;1.95;;
59300;SDS011;45073;52.740;6.784;2022-07-22T08:29:48;9.60;;;2.33;;
59300;SDS011;45073;52.740;6.784;2022-07-22T08:32:14;7.80;;;1.83;;
59300;SDS011;45073;52.740;6.784;2022-07-22T08:34:39;7.25;;;1.70;;
59300;SDS011;45073;52.740;6.784;2022-07-22T08:37:05;8.65;;;1.90;;
59300;SDS011;45073;52.740;6.784;2022-07-22T08:39:31;7.70;;;1.88;;
59300;SDS011;45073;52.740;6.784;2022-07-22T08:41:59;8.05;;;2.10;;
59300;SDS011;45073;52.740;6.784;2022-07-22T08:44:24;7.47;;;1.92;;
59300;SDS011;45073;52.740;6.784;2022-07-22T08:46:53;7.68;;;1.60;;
59300;SDS011;45073;52.740;6.784;2022-07-22T08:49:19;7.57;;;1.92;;
59300;SDS011;45073;52.740;6.784;2022-07-22T08:51:44;6.70;;;1.80;;
59300;SDS011;45073;52.740;6.784;2022-07-22T08:54:10;7.50;;;1.92;;
59300;SDS011;45073;52.740;6.784;2022-07-22T08:56:35;7.32;;;1.90;;
59300;SDS011;45073;52.740;6.784;2022-07-22T08:59:03;7.22;;;1.90;;
59300;SDS011;45073;52.740;6.784;2022-07-22T09:01:29;9.48;;;2.00;;
59300;SDS011;45073;52.740;6.784;2022-07-22T09:03:55;5.80;;;1.80;;
59300;SDS011;45073;52.740;6.784;2022-07-22T09:06:23;6.85;;;2.00;;
59300;SDS011;45073;52.740;6.784;2022-07-22T09:08:50;11.98;;;2.30;;
59300;SDS011;45073;52.740;6.784;2022-07-22T09:11:17;6.97;;;1.85;;
59300;SDS011;45073;52.740;6.784;2022-07-22T09:13:45;7.40;;;1.92;;
59300;SDS011;45073;52.740;6.784;2022-07-22T09:16:12;7.28;;;1.70;;
59300;SDS011;45073;52.740;6.784;2022-07-22T09:18:45;6.68;;;1.95;;
59300;SDS011;45073;52.740;6.784;2022-07-22T09:21:11;6.30;;;1.85;;
59300;SDS011;45073;52.740;6.784;2022-07-22T09:23:39;7.20;;;1.60;;
59300;SDS011;45073;52.740;6.784;2022-07-22T09:26:06;8.20;;;2.13;;
59300;SDS011;45073;52.740;6.784;2022-07-22T09:28:32;7.00;;;1.67;;
59300;SDS011;45073;52.740;6.784;2022-07-22T09:30:58;6.85;;;1.65;;
59300;SDS011;45073;52.740;6.784;2022-07-22T09:33:24;9.88;;;2.17;;
59300;SDS011;45073;52.740;6.784;2022-07-22T09:35:50;9.05;;;2.10;;
59300;SDS011;45073;52.740;6.784;2022-07-22T09:38:17;6.05;;;1.77;;
59300;SDS011;45073;52.740;6.784;2022-07-22T09:40:45;7.75;;;1.80;;
59300;SDS011;45073;52.740;6.784;2022-07-22T09:43:15;4.78;;;1.50;;
59300;SDS011;45073;52.740;6.784;2022-07-22T09:45:49;5.75;;;1.70;;
59300;SDS011;45073;52.740;6.784;2022-07-22T09:48:19;7.53;;;2.10;;
59300;SDS011;45073;52.740;6.784;2022-07-22T09:50:46;6.10;;;1.75;;
59300;SDS011;45073;52.740;6.784;2022-07-22T09:53:13;8.45;;;1.88;;
59300;SDS011;45073;52.740;6.784;2022-07-22T09:55:40;8.23;;;2.00;;
59300;SDS011;45073;52.740;6.784;2022-07-22T09:58:06;7.95;;;2.30;;
59300;SDS011;45073;52.740;6.784;2022-07-22T10:00:33;8.43;;;1.95;;
59300;SDS011;45073;52.740;6.784;2022-07-22T10:03:00;6.47;;;1.67;;
59300;SDS011;45073;52.740;6.784;2022-07-22T10:05:33;8.18;;;2.38;;
59300;SDS011;45073;52.740;6.784;2022-07-22T10:08:02;8.17;;;2.00;;
59300;SDS011;45073;52.740;6.784;2022-07-22T10:10:29;9.43;;;2.53;;
59300;SDS011;45073;52.740;6.784;2022-07-22T10:12:57;7.68;;;1.70;;
59300;SDS011;45073;52.740;6.784;2022-07-22T10:15:24;9.68;;;2.10;;
59300;SDS011;45073;52.740;6.784;2022-07-22T10:17:54;7.93;;;1.83;;
59300;SDS011;45073;52.740;6.784;2022-07-22T10:20:22;6.70;;;1.83;;
59300;SDS011;45073;52.740;6.784;2022-07-22T10:25:23;5.85;;;1.42;;
59300;SDS011;45073;52.740;6.784;2022-07-22T10:28:01;5.95;;;1.60;;
59300;SDS011;45073;52.740;6.784;2022-07-22T10:30:36;7.10;;;1.70;;
59300;SDS011;45073;52.740;6.784;2022-07-22T10:33:15;6.78;;;1.70;;
59300;SDS011;45073;52.740;6.784;2022-07-22T10:38:21;7.22;;;1.73;;
59300;SDS011;45073;52.740;6.784;2022-07-22T10:43:26;8.30;;;2.05;;
59300;SDS011;45073;52.740;6.784;2022-07-22T10:45:57;6.13;;;1.50;;
59300;SDS011;45073;52.740;6.784;2022-07-22T10:54:14;6.30;;;1.38;;
59300;SDS011;45073;52.740;6.784;2022-07-22T10:56:33;7.47;;;1.60;;
59300;SDS011;45073;52.740;6.784;2022-07-22T10:59:16;5.20;;;1.42;;
59300;SDS011;45073;52.740;6.784;2022-07-22T11:01:49;6.78;;;1.70;;
59300;SDS011;45073;52.740;6.784;2022-07-22T11:04:17;7.03;;;1.58;;
59300;SDS011;45073;52.740;6.784;2022-07-22T11:06:48;6.65;;;1.67;;
59300;SDS011;45073;52.740;6.784;2022-07-22T11:09:20;5.68;;;1.70;;
59300;SDS011;45073;52.740;6.784;2022-07-22T11:11:52;6.43;;;1.80;;
59300;SDS011;45073;52.740;6.784;2022-07-22T11:14:20;6.35;;;1.70;;
59300;SDS011;45073;52.740;6.784;2022-07-22T11:16:46;4.97;;;1.40;;
59300;SDS011;45073;52.740;6.784;2022-07-22T11:19:14;5.57;;;1.77;;
59300;SDS011;45073;52.740;6.784;2022-07-22T11:21:39;8.25;;;1.77;;
59300;SDS011;45073;52.740;6.784;2022-07-22T11:24:06;8.23;;;1.92;;
59300;SDS011;45073;52.740;6.784;2022-07-22T11:26:38;8.88;;;2.05;;
59300;SDS011;45073;52.740;6.784;2022-07-22T11:29:09;5.88;;;1.70;;
59300;SDS011;45073;52.740;6.784;2022-07-22T11:31:40;5.80;;;1.73;;
59300;SDS011;45073;52.740;6.784;2022-07-22T11:36:32;9.15;;;3.60;;
59300;SDS011;45073;52.740;6.784;2022-07-22T11:38:59;7.22;;;2.70;;
59300;SDS011;45073;52.740;6.784;2022-07-22T11:41:25;7.65;;;2.00;;
59300;SDS011;45073;52.740;6.784;2022-07-22T11:43:54;6.85;;;1.80;;
59300;SDS011;45073;52.740;6.784;2022-07-22T11:46:20;7.43;;;1.83;;
59300;SDS011;45073;52.740;6.784;2022-07-22T11:48:45;6.93;;;1.77;;
59300;SDS011;45073;52.740;6.784;2022-07-22T11:51:11;8.13;;;2.00;;
59300;SDS011;45073;52.740;6.784;2022-07-22T11:53:39;7.93;;;1.92;;
59300;SDS011;45073;52.740;6.784;2022-07-22T11:56:06;7.88;;;2.13;;
59300;SDS011;45073;52.740;6.784;2022-07-22T11:58:34;8.98;;;2.00;;
59300;SDS011;45073;52.740;6.784;2022-07-22T12:01:00;5.22;;;1.77;;
59300;SDS011;45073;52.740;6.784;2022-07-22T12:03:26;6.45;;;1.88;;
59300;SDS011;45073;52.740;6.784;2022-07-22T12:05:52;7.82;;;1.80;;
59300;SDS011;45073;52.740;6.784;2022-07-22T12:08:18;8.43;;;2.20;;
59300;SDS011;45073;52.740;6.784;2022-07-22T12:10:44;7.82;;;1.88;;
59300;SDS011;45073;52.740;6.784;2022-07-22T12:13:12;15.05;;;5.32;;
59300;SDS011;45073;52.740;6.784;2022-07-22T12:15:39;12.13;;;4.78;;
59300;SDS011;45073;52.740;6.784;2022-07-22T12:18:14;10.65;;;3.72;;
59300;SDS011;45073;52.740;6.784;2022-07-22T12:20:45;12.25;;;3.13;;
59300;SDS011;45073;52.740;6.784;2022-07-22T12:23:12;6.68;;;1.80;;
59300;SDS011;45073;52.740;6.784;2022-07-22T12:25:57;17.80;;;7.10;;
59300;SDS011;45073;52.740;6.784;2022-07-22T12:28:24;8.93;;;2.70;;
59300;SDS011;45073;52.740;6.784;2022-07-22T12:30:51;8.05;;;2.00;;
59300;SDS011;45073;52.740;6.784;2022-07-22T12:33:18;7.53;;;2.03;;
59300;SDS011;45073;52.740;6.784;2022-07-22T12:35:57;7.68;;;1.88;;
59300;SDS011;45073;52.740;6.784;2022-07-22T12:38:23;7.28;;;1.67;;
59300;SDS011;45073;52.740;6.784;2022-07-22T12:40:49;7.25;;;1.77;;
59300;SDS011;45073;52.740;6.784;2022-07-22T12:43:14;6.32;;;1.70;;
59300;SDS011;45073;52.740;6.784;2022-07-22T12:45:40;8.30;;;1.95;;
59300;SDS011;45073;52.740;6.784;2022-07-22T12:48:08;6.60;;;1.40;;
59300;SDS011;45073;52.740;6.784;2022-07-22T12:53:05;7.03;;;1.70;;
59300;SDS011;45073;52.740;6.784;2022-07-22T12:55:54;6.55;;;1.52;;
59300;SDS011;45073;52.740;6.784;2022-07-22T12:58:22;6.28;;;1.60;;
59300;SDS011;45073;52.740;6.784;2022-07-22T13:00:50;7.28;;;1.60;;
59300;SDS011;45073;52.740;6.784;2022-07-22T13:03:19;8.30;;;2.00;;
59300;SDS011;45073;52.740;6.784;2022-07-22T13:05:50;7.22;;;1.55;;
59300;SDS011;45073;52.740;6.784;2022-07-22T13:08:17;8.88;;;1.90;;
59300;SDS011;45073;52.740;6.784;2022-07-22T13:10:43;8.98;;;1.92;;
59300;SDS011;45073;52.740;6.784;2022-07-22T13:13:09;7.50;;;1.83;;
59300;SDS011;45073;52.740;6.784;2022-07-22T13:15:34;5.57;;;1.50;;
59300;SDS011;45073;52.740;6.784;2022-07-22T13:18:00;6.90;;;1.75;;
59300;SDS011;45073;52.740;6.784;2022-07-22T13:20:26;9.07;;;1.90;;
59300;SDS011;45073;52.740;6.784;2022-07-22T13:22:51;10.27;;;1.80;;
59300;SDS011;45073;52.740;6.784;2022-07-22T13:25:17;6.90;;;1.45;;
59300;SDS011;45073;52.740;6.784;2022-07-22T13:27:43;5.57;;;1.88;;
59300;SDS011;45073;52.740;6.784;2022-07-22T13:30:08;7.20;;;1.60;;
59300;SDS011;45073;52.740;6.784;2022-07-22T13:32:34;7.22;;;1.90;;
59300;SDS011;45073;52.740;6.784;2022-07-22T13:35:00;5.95;;;1.65;;
59300;SDS011;45073;52.740;6.784;2022-07-22T13:37:25;4.88;;;1.60;;
59300;SDS011;45073;52.740;6.784;2022-07-22T13:39:51;7.78;;;1.92;;
59300;SDS011;45073;52.740;6.784;2022-07-22T13:42:17;5.45;;;1.60;;
59300;SDS011;45073;52.740;6.784;2022-07-22T13:44:44;6.15;;;1.45;;
59300;SDS011;45073;52.740;6.784;2022-07-22T13:47:14;6.75;;;1.80;;
59300;SDS011;45073;52.740;6.784;2022-07-22T13:49:40;6.20;;;1.80;;
59300;SDS011;45073;52.740;6.784;2022-07-22T13:52:06;5.15;;;1.70;;
59300;SDS011;45073;52.740;6.784;2022-07-22T13:54:32;6.05;;;1.42;;
59300;SDS011;45073;52.740;6.784;2022-07-22T13:57:01;6.00;;;1.58;;
59300;SDS011;45073;52.740;6.784;2022-07-22T13:59:28;5.10;;;1.48;;
59300;SDS011;45073;52.740;6.784;2022-07-22T14:01:54;6.72;;;1.45;;
59300;SDS011;45073;52.740;6.784;2022-07-22T14:04:20;6.40;;;1.70;;
59300;SDS011;45073;52.740;6.784;2022-07-22T14:06:46;8.18;;;2.00;;
59300;SDS011;45073;52.740;6.784;2022-07-22T14:09:11;6.25;;;1.98;;
59300;SDS011;45073;52.740;6.784;2022-07-22T14:11:37;6.28;;;2.05;;
59300;SDS011;45073;52.740;6.784;2022-07-22T14:14:02;7.97;;;1.95;;
59300;SDS011;45073;52.740;6.784;2022-07-22T14:16:28;5.55;;;1.67;;
59300;SDS011;45073;52.740;6.784;2022-07-22T14:19:00;8.30;;;1.70;;
59300;SDS011;45073;52.740;6.784;2022-07-22T14:21:28;5.80;;;1.75;;
59300;SDS011;45073;52.740;6.784;2022-07-22T14:23:53;5.70;;;1.70;;
59300;SDS011;45073;52.740;6.784;2022-07-22T14:26:19;5.35;;;1.52;;
59300;SDS011;45073;52.740;6.784;2022-07-22T14:28:45;6.15;;;1.63;;
59300;SDS011;45073;52.740;6.784;2022-07-22T14:31:11;7.85;;;1.85;;
59300;SDS011;45073;52.740;6.784;2022-07-22T14:33:36;4.65;;;1.48;;
59300;SDS011;45073;52.740;6.784;2022-07-22T14:36:02;5.43;;;1.52;;
59300;SDS011;45073;52.740;6.784;2022-07-22T14:38:27;5.80;;;1.40;;
59300;SDS011;45073;52.740;6.784;2022-07-22T14:40:54;4.85;;;1.55;;
59300;SDS011;45073;52.740;6.784;2022-07-22T14:43:20;5.40;;;1.42;;
59300;SDS011;45073;52.740;6.784;2022-07-22T14:45:45;5.88;;;1.70;;
59300;SDS011;45073;52.740;6.784;2022-07-22T14:48:11;4.80;;;1.60;;
59300;SDS011;45073;52.740;6.784;2022-07-22T14:50:36;6.65;;;1.30;;
59300;SDS011;45073;52.740;6.784;2022-07-22T14:53:02;5.03;;;1.38;;
59300;SDS011;45073;52.740;6.784;2022-07-22T14:55:27;7.50;;;2.00;;
59300;SDS011;45073;52.740;6.784;2022-07-22T14:57:53;5.13;;;1.60;;